Airfield :
LOGIN :

Register | Disclaimer

   EN    FR    IT 

 










Legend :    VFR   Marginal VFR   IFR   Intensive IFR   Very Intensive IFR
Visi :
Ceiling :
>= 8 km
>= 3000ft
5 to 8 km
1000 to 3000 ft
1500m to 5 km
500 to 1000 ft
800 to 1500m
200 to 500 ft
< 800m
< 200 ft
Symbols :   Thunderstorms  Fog  Heavy snow  Heavy precipitations  Wind > 20 kt
SIGMETs :     Misc.  Thunderstorms  Icing  Turbulence  Mountain Waves  Volcanic Ashes







- Airport Elevation : 242 ft
- IATA code : DUB


EIDW - Dublin

CURRENT METAR :
  • 231700Z 27023KT 9999 FEW018 SCT200 14/09 Q1008 NOSIG

EXPIRED METARs :
  • 231630Z 26025G36KT 9999 FEW014 BKN018 15/11 Q1008 NOSIG
  • 231600Z 24019KT 9999 SCT014 BKN018 14/11 Q1008 NOSIG
  • 231530Z 24021KT 9999 FEW014 BKN017 BKN022 13/10 Q1008 NOSIG
  • 231500Z 23020KT 9999 FEW014 BKN017 BKN022 13/10 Q1008 NOSIG
  • 231430Z 23021G31KT 9999 FEW014 BKN017 BKN022 13/10 Q1008 NOSIG

TAF TAF EIDW
Valid from the 23 at 12:00 until the 24 at 12:00 UTC


231100Z 2312/2412 21015KT 9999 SCT020 BKN040
TEMPO 2313/2317 -RA BKN014
BECMG 2314/2316 23017G28KT
BECMG 2316/2318 26018G30KT
BECMG 2321/2323 25014KT
BECMG 2403/2406 23009KT
PROB30
TEMPO 2407/2411 -RA BKN014
No reported NOTAMs for that airfield.



MET'MAP, your aeronautical weather chart ! - Copyright ORBIFLY December 2007 - Disclaimer

ORBIFLY MET'MAP TEAM :

Programming & Development : Alexandra Zaïnal
Concept & Development : Baudouin d'Aumeries
Co-Development & Prog : Marc-Olivier Méhu
Technical & hardware support : Manuel Goepfert

Contact : metmap@orbifly.com




SOURCES & CREDITS :

   NOAA